X  Κλείσε Στοιχεία αεροπορικών μετεωρολογικών δεδομένων METAR     LGTS Thessaloniki Macedonia International Airport
θερμοκρασία
14°C θερμοκρασία
14°C Σημείο δρόσου
100% Υγρασία



Ανεμος
0 KM/H
0 MPH
0 M/S
0 KTS



Ηρεμία
Vóreios
Τρέχουσες συνθήκες

Μερικώς συννεφιασμένος Μερικώς συννεφιασμένος
πίεση 1014.92 (hPa) - 29.97 (inHg)
Ορατότητα 4.3 (μίλι) - 7 (km)
Aεροδρόμιο
Κωδικός αεροδρομίου LGTS

Τοποθεσία: Thessaloniki Macedonia International Airport
Απόσταση: 85 (km)

Metar:
LGTS 091450Z 00000KT 7000 FEW008 BKN020 14/14 Q1015 NOSIG

ώρα: 09-12-2022 16:50 EET